Aviation Digital Data Service (ADDS)

Output produced by METARs form (0237 UTC 18 June 2019)
found at http://www.aviationweather.gov/metar/data/
 
Forecast for: EKBI (BILLUND AIRPORT , DK)
Text: TAF EKBI 172312Z 1800/1824 19008KT 9999 SCT030
Forecast period: 0000 UTC 18 June 2019 to 0000 UTC 19 June 2019
Forecast type: FROM: standard forecast or significant change
Winds: from the S (190 degrees) at 9 MPH (8 knots; 4.1 m/s)
Visibility: 6 or more miles 10+ km)
Ceiling: at least 12,000 feet AGL
Clouds: scattered clouds at 3000 feet AGL
Weather: no significant weather forecast for this period
Text: TEMPO 1809/1812 SCT040TCU
Forecast period: 0900 to 1200 UTC 18 June 2019
Forecast type: TEMPORARY: The following changes expected for less than half the time period
Visibility: missing
Ceiling: at least 12,000 feet AGL
Clouds: scattered clouds at 4000 feet AGL
Weather: no significant weather forecast for this period
Text: TEMPO 1812/1817 SCT040CB
Forecast period: 1200 to 1700 UTC 18 June 2019
Forecast type: TEMPORARY: The following changes expected for less than half the time period
Visibility: missing
Ceiling: at least 12,000 feet AGL
Clouds: scattered clouds at 4000 feet AGL
Weather: no significant weather forecast for this period